MET995 - Kuala Lumpur International Airport to Hong Kong

Airbus A330-243
787MT
3 hrs 30 mins
1375 nm
Scheduled - M | TU | TH

Bid/PiRep Status

Bid was submitted on January 2nd, 2017 16:27 UTC.
PiRep # 74582: Approved by Dave Nichols on January 3rd, 2017 10:15 UTC

Departure

Departing from
Kuala Lumpur International Airport (KUL)
Departure gate
Ramp
Scheduled Departure
GMT 1145
Local 1945
METAR WMKK 232000Z 03003KT 340V060 9000 FEW017CB SCT140 BKN280 28/25 Q1010 NOSIG
TAF TAF WMKK 231700Z 2318/2500 VRB02KT 9999 FEW030 SCT140 BKN280 TEMPO 2319/2323 3000 TSRA FEW015CB SCT018 BECMG 2400/2402 FEW017CB SCT018 BKN280 PROB30 TEMPO 2406/2410 3000 TSRA FEW015CB SCT018
  • No charts available

Arrival

Arriving at
Hong Kong (HKG)
Arrival gate
Ramp
Scheduled Arrival
GMT 1515
Local 2315
METAR VHHH 232030Z 06007KT 030V090 CAVOK 23/17 Q1018 NOSIG
TAF TAF VHHH 231700Z 2318/2424 08010KT 9000 FEW040 TX28/2406Z TN22/2323Z TN22/2423Z TEMPO 2403/2408 30010KT

Route Map

Planning Resources

PIBOS.A M763 ENREP L642 EPDOS ACORN DUMOL1A
VKL G334 VPT RAXIM M771 CH
ISTANA ISTAN G584 PK L629 DOLOX M771 DUMOL DUMOL1B
VKR R208 IGARI M765 DAGAG M771 DULOP CARSO V551 BETTY BETY2A
Route:
OFP Layout:
Units:
Detailed Navlog:
ETOPS Planning:
Plan Stepclimbs:
Runway Analysis:
Include NOTAMS:
FIR NOTAMS:
Flight Maps:

Return Flights

MET994
Airbus A330-243
0715 GMT

Popularity

Hub Current Bids PiReps this month Total PiReps
KLAX 0 0 2
KBOS 0 0 0
KDFW 0 0 0